sensor_id;sensor_type;location;lat;lon;timestamp;P1;durP1;ratioP1;P2;durP2;ratioP2
65210;SDS011;51794;52.758;55.792;2022-12-18T00:00:40;6.93;;;2.72;;
65210;SDS011;51794;52.758;55.792;2022-12-18T00:03:06;6.90;;;2.72;;
65210;SDS011;51794;52.758;55.792;2022-12-18T00:05:32;5.53;;;2.50;;
65210;SDS011;51794;52.758;55.792;2022-12-18T00:07:58;7.90;;;3.17;;
65210;SDS011;51794;52.758;55.792;2022-12-18T00:10:24;7.40;;;2.60;;
65210;SDS011;51794;52.758;55.792;2022-12-18T00:12:49;6.97;;;3.22;;
65210;SDS011;51794;52.758;55.792;2022-12-18T00:15:15;6.20;;;2.65;;
65210;SDS011;51794;52.758;55.792;2022-12-18T00:17:41;5.97;;;2.70;;
65210;SDS011;51794;52.758;55.792;2022-12-18T00:20:07;4.53;;;2.42;;
65210;SDS011;51794;52.758;55.792;2022-12-18T00:22:33;5.97;;;2.35;;
65210;SDS011;51794;52.758;55.792;2022-12-18T00:24:59;6.88;;;2.60;;
65210;SDS011;51794;52.758;55.792;2022-12-18T00:27:24;7.60;;;2.88;;
65210;SDS011;51794;52.758;55.792;2022-12-18T00:29:50;5.30;;;2.22;;
65210;SDS011;51794;52.758;55.792;2022-12-18T00:32:16;9.77;;;2.60;;
65210;SDS011;51794;52.758;55.792;2022-12-18T00:34:41;6.53;;;2.50;;
65210;SDS011;51794;52.758;55.792;2022-12-18T00:37:07;6.10;;;2.47;;
65210;SDS011;51794;52.758;55.792;2022-12-18T00:39:33;5.72;;;2.60;;
65210;SDS011;51794;52.758;55.792;2022-12-18T00:41:58;3.65;;;1.80;;
65210;SDS011;51794;52.758;55.792;2022-12-18T00:44:43;5.30;;;2.53;;
65210;SDS011;51794;52.758;55.792;2022-12-18T00:47:08;7.93;;;2.78;;
65210;SDS011;51794;52.758;55.792;2022-12-18T00:49:34;5.28;;;2.30;;
65210;SDS011;51794;52.758;55.792;2022-12-18T00:52:00;6.47;;;2.30;;
65210;SDS011;51794;52.758;55.792;2022-12-18T00:54:26;7.05;;;2.60;;
65210;SDS011;51794;52.758;55.792;2022-12-18T00:56:52;8.00;;;2.80;;
65210;SDS011;51794;52.758;55.792;2022-12-18T00:59:17;5.97;;;2.20;;
65210;SDS011;51794;52.758;55.792;2022-12-18T01:01:43;5.15;;;2.35;;
65210;SDS011;51794;52.758;55.792;2022-12-18T01:04:09;7.10;;;2.78;;
65210;SDS011;51794;52.758;55.792;2022-12-18T01:06:35;6.30;;;2.67;;
65210;SDS011;51794;52.758;55.792;2022-12-18T01:09:01;7.07;;;2.50;;
65210;SDS011;51794;52.758;55.792;2022-12-18T01:11:27;7.55;;;2.38;;
65210;SDS011;51794;52.758;55.792;2022-12-18T01:13:53;4.05;;;2.08;;
65210;SDS011;51794;52.758;55.792;2022-12-18T01:16:19;4.97;;;2.00;;
65210;SDS011;51794;52.758;55.792;2022-12-18T01:18:45;6.40;;;2.53;;
65210;SDS011;51794;52.758;55.792;2022-12-18T01:21:13;5.85;;;2.25;;
65210;SDS011;51794;52.758;55.792;2022-12-18T01:23:39;6.80;;;2.60;;
65210;SDS011;51794;52.758;55.792;2022-12-18T01:26:09;5.05;;;2.10;;
65210;SDS011;51794;52.758;55.792;2022-12-18T01:28:35;5.03;;;2.42;;
65210;SDS011;51794;52.758;55.792;2022-12-18T01:31:20;5.70;;;2.55;;
65210;SDS011;51794;52.758;55.792;2022-12-18T01:33:46;6.20;;;2.53;;
65210;SDS011;51794;52.758;55.792;2022-12-18T01:36:19;5.68;;;2.53;;
65210;SDS011;51794;52.758;55.792;2022-12-18T01:38:45;5.43;;;2.50;;
65210;SDS011;51794;52.758;55.792;2022-12-18T01:41:12;5.97;;;2.45;;
65210;SDS011;51794;52.758;55.792;2022-12-18T01:43:46;5.20;;;2.28;;
65210;SDS011;51794;52.758;55.792;2022-12-18T01:46:12;6.50;;;2.70;;
65210;SDS011;51794;52.758;55.792;2022-12-18T01:48:38;8.52;;;2.47;;
65210;SDS011;51794;52.758;55.792;2022-12-18T01:51:04;5.20;;;2.10;;
65210;SDS011;51794;52.758;55.792;2022-12-18T01:53:31;6.00;;;2.47;;
65210;SDS011;51794;52.758;55.792;2022-12-18T01:55:57;5.90;;;2.60;;
65210;SDS011;51794;52.758;55.792;2022-12-18T01:58:25;6.35;;;3.22;;
65210;SDS011;51794;52.758;55.792;2022-12-18T02:00:54;5.18;;;2.40;;
65210;SDS011;51794;52.758;55.792;2022-12-18T02:03:20;6.97;;;2.67;;
65210;SDS011;51794;52.758;55.792;2022-12-18T02:08:34;4.93;;;2.80;;
65210;SDS011;51794;52.758;55.792;2022-12-18T02:11:11;6.55;;;3.03;;
65210;SDS011;51794;52.758;55.792;2022-12-18T02:19:00;5.00;;;2.40;;
65210;SDS011;51794;52.758;55.792;2022-12-18T02:21:48;9.45;;;2.42;;
65210;SDS011;51794;52.758;55.792;2022-12-18T02:26:49;6.00;;;2.50;;
65210;SDS011;51794;52.758;55.792;2022-12-18T02:29:50;5.80;;;2.38;;
65210;SDS011;51794;52.758;55.792;2022-12-18T02:32:12;5.72;;;2.20;;
65210;SDS011;51794;52.758;55.792;2022-12-18T02:34:40;5.43;;;2.20;;
65210;SDS011;51794;52.758;55.792;2022-12-18T02:37:07;4.68;;;2.25;;
65210;SDS011;51794;52.758;55.792;2022-12-18T02:39:35;3.00;;;2.17;;
65210;SDS011;51794;52.758;55.792;2022-12-18T02:42:01;4.95;;;2.25;;
65210;SDS011;51794;52.758;55.792;2022-12-18T02:44:42;4.28;;;2.20;;
65210;SDS011;51794;52.758;55.792;2022-12-18T02:47:10;4.60;;;1.88;;
65210;SDS011;51794;52.758;55.792;2022-12-18T02:59:58;6.05;;;2.42;;
65210;SDS011;51794;52.758;55.792;2022-12-18T03:02:29;5.15;;;1.98;;
65210;SDS011;51794;52.758;55.792;2022-12-18T03:07:52;4.93;;;2.17;;
65210;SDS011;51794;52.758;55.792;2022-12-18T03:10:22;6.43;;;2.85;;
65210;SDS011;51794;52.758;55.792;2022-12-18T03:12:52;3.15;;;1.77;;
65210;SDS011;51794;52.758;55.792;2022-12-18T03:15:26;4.53;;;2.40;;
65210;SDS011;51794;52.758;55.792;2022-12-18T03:17:59;6.43;;;3.05;;
65210;SDS011;51794;52.758;55.792;2022-12-18T03:20:26;6.10;;;2.08;;
65210;SDS011;51794;52.758;55.792;2022-12-18T03:22:57;3.88;;;2.00;;
65210;SDS011;51794;52.758;55.792;2022-12-18T03:25:24;4.80;;;2.57;;
65210;SDS011;51794;52.758;55.792;2022-12-18T03:27:51;6.03;;;2.38;;
65210;SDS011;51794;52.758;55.792;2022-12-18T03:30:18;5.50;;;2.08;;
65210;SDS011;51794;52.758;55.792;2022-12-18T03:35:10;2.90;;;1.73;;
65210;SDS011;51794;52.758;55.792;2022-12-18T03:37:38;4.72;;;2.78;;
65210;SDS011;51794;52.758;55.792;2022-12-18T03:40:04;4.63;;;1.83;;
65210;SDS011;51794;52.758;55.792;2022-12-18T03:42:32;3.90;;;2.10;;
65210;SDS011;51794;52.758;55.792;2022-12-18T03:47:53;5.15;;;2.10;;
65210;SDS011;51794;52.758;55.792;2022-12-18T03:55:23;4.15;;;1.70;;
65210;SDS011;51794;52.758;55.792;2022-12-18T03:57:50;5.47;;;2.33;;
65210;SDS011;51794;52.758;55.792;2022-12-18T04:00:18;7.55;;;2.38;;
65210;SDS011;51794;52.758;55.792;2022-12-18T04:02:53;4.07;;;2.20;;
65210;SDS011;51794;52.758;55.792;2022-12-18T04:05:19;4.63;;;2.17;;
65210;SDS011;51794;52.758;55.792;2022-12-18T04:07:46;5.30;;;2.10;;
65210;SDS011;51794;52.758;55.792;2022-12-18T04:10:13;4.20;;;2.05;;
65210;SDS011;51794;52.758;55.792;2022-12-18T04:12:40;3.95;;;2.10;;
65210;SDS011;51794;52.758;55.792;2022-12-18T04:15:06;4.72;;;2.40;;
65210;SDS011;51794;52.758;55.792;2022-12-18T04:17:46;2.90;;;1.98;;
65210;SDS011;51794;52.758;55.792;2022-12-18T04:20:24;4.97;;;2.08;;
65210;SDS011;51794;52.758;55.792;2022-12-18T04:22:50;5.47;;;2.40;;
65210;SDS011;51794;52.758;55.792;2022-12-18T04:25:16;3.88;;;1.83;;
65210;SDS011;51794;52.758;55.792;2022-12-18T04:27:41;4.90;;;2.03;;
65210;SDS011;51794;52.758;55.792;2022-12-18T04:30:07;5.38;;;1.98;;
65210;SDS011;51794;52.758;55.792;2022-12-18T04:32:33;6.78;;;2.80;;
65210;SDS011;51794;52.758;55.792;2022-12-18T04:34:59;6.57;;;2.50;;
65210;SDS011;51794;52.758;55.792;2022-12-18T04:37:25;5.50;;;2.03;;
65210;SDS011;51794;52.758;55.792;2022-12-18T04:39:51;5.13;;;2.42;;
65210;SDS011;51794;52.758;55.792;2022-12-18T04:42:17;3.35;;;2.05;;
65210;SDS011;51794;52.758;55.792;2022-12-18T04:44:42;5.40;;;2.25;;
65210;SDS011;51794;52.758;55.792;2022-12-18T04:47:08;4.75;;;2.10;;
65210;SDS011;51794;52.758;55.792;2022-12-18T04:49:34;4.00;;;1.95;;
65210;SDS011;51794;52.758;55.792;2022-12-18T04:52:00;4.57;;;1.90;;
65210;SDS011;51794;52.758;55.792;2022-12-18T04:54:25;6.15;;;2.45;;
65210;SDS011;51794;52.758;55.792;2022-12-18T04:56:51;5.75;;;2.30;;
65210;SDS011;51794;52.758;55.792;2022-12-18T04:59:17;3.97;;;2.20;;
65210;SDS011;51794;52.758;55.792;2022-12-18T05:01:42;4.40;;;1.90;;
65210;SDS011;51794;52.758;55.792;2022-12-18T05:04:08;5.05;;;2.05;;
65210;SDS011;51794;52.758;55.792;2022-12-18T05:06:34;7.80;;;2.35;;
65210;SDS011;51794;52.758;55.792;2022-12-18T05:08:59;4.28;;;2.13;;
65210;SDS011;51794;52.758;55.792;2022-12-18T05:11:27;5.93;;;2.53;;
65210;SDS011;51794;52.758;55.792;2022-12-18T05:13:53;5.18;;;2.40;;
65210;SDS011;51794;52.758;55.792;2022-12-18T05:16:21;6.72;;;3.20;;
65210;SDS011;51794;52.758;55.792;2022-12-18T05:18:47;4.32;;;1.88;;
65210;SDS011;51794;52.758;55.792;2022-12-18T05:21:13;6.00;;;2.63;;
65210;SDS011;51794;52.758;55.792;2022-12-18T05:23:39;4.93;;;2.22;;
65210;SDS011;51794;52.758;55.792;2022-12-18T05:26:05;5.82;;;1.90;;
65210;SDS011;51794;52.758;55.792;2022-12-18T05:28:32;3.35;;;1.83;;
65210;SDS011;51794;52.758;55.792;2022-12-18T05:30:58;4.45;;;1.98;;
65210;SDS011;51794;52.758;55.792;2022-12-18T05:33:25;3.90;;;1.90;;
65210;SDS011;51794;52.758;55.792;2022-12-18T05:35:55;4.47;;;2.10;;
65210;SDS011;51794;52.758;55.792;2022-12-18T05:38:21;7.57;;;2.80;;
65210;SDS011;51794;52.758;55.792;2022-12-18T05:40:48;5.07;;;2.15;;
65210;SDS011;51794;52.758;55.792;2022-12-18T05:43:14;4.78;;;2.08;;
65210;SDS011;51794;52.758;55.792;2022-12-18T05:45:40;5.68;;;2.63;;
65210;SDS011;51794;52.758;55.792;2022-12-18T05:48:06;5.30;;;2.20;;
65210;SDS011;51794;52.758;55.792;2022-12-18T05:50:35;5.88;;;2.20;;
65210;SDS011;51794;52.758;55.792;2022-12-18T05:53:02;3.58;;;2.03;;
65210;SDS011;51794;52.758;55.792;2022-12-18T05:55:28;4.50;;;2.42;;
65210;SDS011;51794;52.758;55.792;2022-12-18T05:57:54;5.85;;;2.40;;
65210;SDS011;51794;52.758;55.792;2022-12-18T06:00:19;7.38;;;2.80;;
65210;SDS011;51794;52.758;55.792;2022-12-18T06:02:48;5.57;;;2.60;;
65210;SDS011;51794;52.758;55.792;2022-12-18T06:05:14;8.52;;;2.70;;
65210;SDS011;51794;52.758;55.792;2022-12-18T06:07:40;5.38;;;2.25;;
65210;SDS011;51794;52.758;55.792;2022-12-18T06:10:05;4.88;;;2.22;;
65210;SDS011;51794;52.758;55.792;2022-12-18T06:12:31;4.68;;;2.10;;
65210;SDS011;51794;52.758;55.792;2022-12-18T06:14:59;4.90;;;1.85;;
65210;SDS011;51794;52.758;55.792;2022-12-18T06:17:28;6.63;;;2.25;;
65210;SDS011;51794;52.758;55.792;2022-12-18T06:19:54;4.43;;;2.00;;
65210;SDS011;51794;52.758;55.792;2022-12-18T06:22:20;3.63;;;2.05;;
65210;SDS011;51794;52.758;55.792;2022-12-18T06:24:46;4.05;;;2.10;;
65210;SDS011;51794;52.758;55.792;2022-12-18T06:27:12;3.65;;;2.20;;
65210;SDS011;51794;52.758;55.792;2022-12-18T06:29:37;4.80;;;2.08;;
65210;SDS011;51794;52.758;55.792;2022-12-18T06:32:03;4.13;;;1.80;;
65210;SDS011;51794;52.758;55.792;2022-12-18T06:34:29;3.72;;;1.90;;
65210;SDS011;51794;52.758;55.792;2022-12-18T06:36:54;5.25;;;2.60;;
65210;SDS011;51794;52.758;55.792;2022-12-18T06:39:20;5.03;;;2.05;;
65210;SDS011;51794;52.758;55.792;2022-12-18T06:41:46;5.60;;;1.95;;
65210;SDS011;51794;52.758;55.792;2022-12-18T06:44:12;5.18;;;1.73;;
65210;SDS011;51794;52.758;55.792;2022-12-18T06:46:37;6.15;;;2.25;;
65210;SDS011;51794;52.758;55.792;2022-12-18T06:49:03;4.88;;;1.92;;
65210;SDS011;51794;52.758;55.792;2022-12-18T06:51:29;2.75;;;1.67;;
65210;SDS011;51794;52.758;55.792;2022-12-18T06:53:55;5.05;;;2.03;;
65210;SDS011;51794;52.758;55.792;2022-12-18T06:56:20;3.35;;;1.83;;
65210;SDS011;51794;52.758;55.792;2022-12-18T06:58:46;6.13;;;2.45;;
65210;SDS011;51794;52.758;55.792;2022-12-18T07:01:12;4.28;;;2.28;;
65210;SDS011;51794;52.758;55.792;2022-12-18T07:03:38;4.90;;;2.42;;
65210;SDS011;51794;52.758;55.792;2022-12-18T07:06:04;2.58;;;1.95;;
65210;SDS011;51794;52.758;55.792;2022-12-18T07:08:31;3.50;;;1.98;;
65210;SDS011;51794;52.758;55.792;2022-12-18T07:10:57;4.05;;;2.00;;
65210;SDS011;51794;52.758;55.792;2022-12-18T07:13:23;4.05;;;2.50;;
65210;SDS011;51794;52.758;55.792;2022-12-18T07:15:49;5.47;;;2.15;;
65210;SDS011;51794;52.758;55.792;2022-12-18T07:18:15;4.13;;;2.00;;
65210;SDS011;51794;52.758;55.792;2022-12-18T07:20:40;6.47;;;2.30;;
65210;SDS011;51794;52.758;55.792;2022-12-18T07:23:06;4.00;;;2.30;;
65210;SDS011;51794;52.758;55.792;2022-12-18T07:25:35;5.05;;;2.33;;
65210;SDS011;51794;52.758;55.792;2022-12-18T07:28:01;2.65;;;1.75;;
65210;SDS011;51794;52.758;55.792;2022-12-18T07:30:27;3.83;;;1.95;;
65210;SDS011;51794;52.758;55.792;2022-12-18T07:32:53;4.30;;;2.25;;
65210;SDS011;51794;52.758;55.792;2022-12-18T07:35:18;4.85;;;2.35;;
65210;SDS011;51794;52.758;55.792;2022-12-18T07:37:44;4.80;;;2.00;;
65210;SDS011;51794;52.758;55.792;2022-12-18T07:40:11;4.03;;;2.10;;
65210;SDS011;51794;52.758;55.792;2022-12-18T07:42:36;4.32;;;2.20;;
65210;SDS011;51794;52.758;55.792;2022-12-18T07:45:02;5.88;;;2.50;;
65210;SDS011;51794;52.758;55.792;2022-12-18T07:47:30;4.50;;;2.30;;
65210;SDS011;51794;52.758;55.792;2022-12-18T07:49:55;4.38;;;2.30;;
65210;SDS011;51794;52.758;55.792;2022-12-18T07:52:21;4.93;;;2.25;;
65210;SDS011;51794;52.758;55.792;2022-12-18T07:54:48;7.00;;;2.65;;
65210;SDS011;51794;52.758;55.792;2022-12-18T07:57:15;2.47;;;1.77;;
65210;SDS011;51794;52.758;55.792;2022-12-18T07:59:42;4.50;;;2.65;;
65210;SDS011;51794;52.758;55.792;2022-12-18T08:02:07;4.78;;;2.38;;
65210;SDS011;51794;52.758;55.792;2022-12-18T08:04:33;5.88;;;2.55;;
65210;SDS011;51794;52.758;55.792;2022-12-18T08:06:59;3.38;;;2.28;;
65210;SDS011;51794;52.758;55.792;2022-12-18T08:09:25;7.35;;;2.42;;
65210;SDS011;51794;52.758;55.792;2022-12-18T08:11:50;4.03;;;2.25;;
65210;SDS011;51794;52.758;55.792;2022-12-18T08:14:16;6.53;;;2.33;;
65210;SDS011;51794;52.758;55.792;2022-12-18T08:16:42;4.63;;;2.42;;
65210;SDS011;51794;52.758;55.792;2022-12-18T08:19:07;4.93;;;2.08;;
65210;SDS011;51794;52.758;55.792;2022-12-18T08:21:33;3.03;;;1.70;;
65210;SDS011;51794;52.758;55.792;2022-12-18T08:24:00;5.65;;;1.88;;
65210;SDS011;51794;52.758;55.792;2022-12-18T08:26:27;3.65;;;2.15;;
65210;SDS011;51794;52.758;55.792;2022-12-18T08:28:53;4.63;;;1.90;;
65210;SDS011;51794;52.758;55.792;2022-12-18T08:31:19;5.05;;;2.08;;
65210;SDS011;51794;52.758;55.792;2022-12-18T08:33:45;3.88;;;2.22;;
65210;SDS011;51794;52.758;55.792;2022-12-18T08:36:13;4.88;;;2.17;;
65210;SDS011;51794;52.758;55.792;2022-12-18T08:38:39;4.55;;;2.30;;
65210;SDS011;51794;52.758;55.792;2022-12-18T08:41:06;3.60;;;2.10;;
65210;SDS011;51794;52.758;55.792;2022-12-18T08:43:31;4.90;;;2.42;;
65210;SDS011;51794;52.758;55.792;2022-12-18T08:46:17;3.85;;;1.88;;
65210;SDS011;51794;52.758;55.792;2022-12-18T08:48:43;5.68;;;2.30;;
65210;SDS011;51794;52.758;55.792;2022-12-18T08:51:09;4.97;;;2.30;;
65210;SDS011;51794;52.758;55.792;2022-12-18T08:53:35;5.95;;;2.33;;
65210;SDS011;51794;52.758;55.792;2022-12-18T08:56:02;2.83;;;1.85;;
65210;SDS011;51794;52.758;55.792;2022-12-18T08:58:28;4.05;;;2.20;;
65210;SDS011;51794;52.758;55.792;2022-12-18T09:00:53;4.45;;;2.35;;
65210;SDS011;51794;52.758;55.792;2022-12-18T09:03:19;5.40;;;2.55;;
65210;SDS011;51794;52.758;55.792;2022-12-18T09:05:47;5.95;;;2.30;;
65210;SDS011;51794;52.758;55.792;2022-12-18T09:08:13;5.60;;;3.00;;
65210;SDS011;51794;52.758;55.792;2022-12-18T09:10:43;5.07;;;2.40;;
65210;SDS011;51794;52.758;55.792;2022-12-18T09:13:09;4.57;;;2.58;;
65210;SDS011;51794;52.758;55.792;2022-12-18T09:15:39;4.00;;;2.28;;
65210;SDS011;51794;52.758;55.792;2022-12-18T09:18:05;4.20;;;2.13;;
65210;SDS011;51794;52.758;55.792;2022-12-18T09:20:31;5.30;;;2.47;;
65210;SDS011;51794;52.758;55.792;2022-12-18T09:22:57;4.50;;;2.17;;
65210;SDS011;51794;52.758;55.792;2022-12-18T09:25:22;2.90;;;1.95;;
65210;SDS011;51794;52.758;55.792;2022-12-18T09:27:48;5.07;;;2.40;;
65210;SDS011;51794;52.758;55.792;2022-12-18T09:30:14;5.63;;;2.65;;
65210;SDS011;51794;52.758;55.792;2022-12-18T09:32:39;5.00;;;3.00;;
65210;SDS011;51794;52.758;55.792;2022-12-18T09:35:05;5.22;;;2.67;;
65210;SDS011;51794;52.758;55.792;2022-12-18T09:37:31;3.33;;;2.20;;
65210;SDS011;51794;52.758;55.792;2022-12-18T09:39:57;5.57;;;2.42;;
65210;SDS011;51794;52.758;55.792;2022-12-18T09:42:22;7.93;;;3.00;;
65210;SDS011;51794;52.758;55.792;2022-12-18T09:44:52;6.10;;;2.65;;
65210;SDS011;51794;52.758;55.792;2022-12-18T09:47:25;3.63;;;1.98;;
65210;SDS011;51794;52.758;55.792;2022-12-18T09:49:57;6.53;;;2.75;;
65210;SDS011;51794;52.758;55.792;2022-12-18T09:52:37;6.70;;;2.83;;
65210;SDS011;51794;52.758;55.792;2022-12-18T09:58:04;4.57;;;2.65;;
65210;SDS011;51794;52.758;55.792;2022-12-18T10:00:31;5.47;;;2.60;;
65210;SDS011;51794;52.758;55.792;2022-12-18T10:02:59;4.38;;;2.72;;
65210;SDS011;51794;52.758;55.792;2022-12-18T10:15:49;5.78;;;2.90;;
65210;SDS011;51794;52.758;55.792;2022-12-18T10:20:50;5.82;;;3.00;;
65210;SDS011;51794;52.758;55.792;2022-12-18T10:25:59;9.07;;;2.42;;
65210;SDS011;51794;52.758;55.792;2022-12-18T10:28:27;5.28;;;2.95;;
65210;SDS011;51794;52.758;55.792;2022-12-18T10:30:54;4.75;;;2.20;;
65210;SDS011;51794;52.758;55.792;2022-12-18T10:33:21;4.65;;;2.33;;
65210;SDS011;51794;52.758;55.792;2022-12-18T10:35:49;6.05;;;2.78;;
65210;SDS011;51794;52.758;55.792;2022-12-18T10:43:29;4.57;;;2.83;;
65210;SDS011;51794;52.758;55.792;2022-12-18T10:45:58;5.93;;;3.15;;
65210;SDS011;51794;52.758;55.792;2022-12-18T10:48:24;6.07;;;2.65;;
65210;SDS011;51794;52.758;55.792;2022-12-18T10:50:50;4.82;;;2.40;;
65210;SDS011;51794;52.758;55.792;2022-12-18T10:53:23;7.65;;;2.97;;
65210;SDS011;51794;52.758;55.792;2022-12-18T10:55:50;5.97;;;3.03;;
65210;SDS011;51794;52.758;55.792;2022-12-18T11:04:16;5.32;;;2.88;;
65210;SDS011;51794;52.758;55.792;2022-12-18T11:06:15;6.53;;;2.90;;
65210;SDS011;51794;52.758;55.792;2022-12-18T11:08:42;9.63;;;3.63;;
65210;SDS011;51794;52.758;55.792;2022-12-18T11:11:15;5.05;;;2.70;;
65210;SDS011;51794;52.758;55.792;2022-12-18T11:13:47;10.57;;;3.05;;
65210;SDS011;51794;52.758;55.792;2022-12-18T11:16:19;6.15;;;2.90;;
65210;SDS011;51794;52.758;55.792;2022-12-18T11:18:45;5.50;;;2.65;;
65210;SDS011;51794;52.758;55.792;2022-12-18T11:21:11;6.13;;;3.25;;
65210;SDS011;51794;52.758;55.792;2022-12-18T11:23:49;5.60;;;3.20;;
65210;SDS011;51794;52.758;55.792;2022-12-18T11:26:16;6.05;;;3.05;;
65210;SDS011;51794;52.758;55.792;2022-12-18T11:28:52;5.72;;;2.83;;
65210;SDS011;51794;52.758;55.792;2022-12-18T11:31:31;6.50;;;3.17;;
65210;SDS011;51794;52.758;55.792;2022-12-18T11:34:00;7.53;;;3.03;;
65210;SDS011;51794;52.758;55.792;2022-12-18T11:36:28;5.20;;;3.15;;
65210;SDS011;51794;52.758;55.792;2022-12-18T11:38:55;5.85;;;3.08;;
65210;SDS011;51794;52.758;55.792;2022-12-18T11:41:23;6.07;;;2.97;;
65210;SDS011;51794;52.758;55.792;2022-12-18T11:44:10;7.45;;;3.53;;
65210;SDS011;51794;52.758;55.792;2022-12-18T11:46:45;6.68;;;3.20;;
65210;SDS011;51794;52.758;55.792;2022-12-18T11:49:14;7.70;;;3.65;;
65210;SDS011;51794;52.758;55.792;2022-12-18T11:51:54;7.70;;;3.55;;
65210;SDS011;51794;52.758;55.792;2022-12-18T11:54:20;5.72;;;3.22;;
65210;SDS011;51794;52.758;55.792;2022-12-18T11:57:02;10.10;;;4.43;;
65210;SDS011;51794;52.758;55.792;2022-12-18T12:09:59;6.88;;;3.80;;
65210;SDS011;51794;52.758;55.792;2022-12-18T12:17:45;4.38;;;2.50;;
65210;SDS011;51794;52.758;55.792;2022-12-18T12:26:05;7.10;;;2.90;;
65210;SDS011;51794;52.758;55.792;2022-12-18T12:31:10;6.53;;;3.35;;
65210;SDS011;51794;52.758;55.792;2022-12-18T12:36:19;3.90;;;2.65;;
65210;SDS011;51794;52.758;55.792;2022-12-18T12:38:48;5.88;;;2.92;;
65210;SDS011;51794;52.758;55.792;2022-12-18T12:41:20;6.47;;;3.13;;
65210;SDS011;51794;52.758;55.792;2022-12-18T12:44:06;6.03;;;3.65;;
65210;SDS011;51794;52.758;55.792;2022-12-18T12:46:36;7.60;;;3.50;;
65210;SDS011;51794;52.758;55.792;2022-12-18T12:49:03;5.63;;;3.78;;
65210;SDS011;51794;52.758;55.792;2022-12-18T12:53:56;5.35;;;3.33;;
65210;SDS011;51794;52.758;55.792;2022-12-18T12:56:32;6.35;;;3.78;;
65210;SDS011;51794;52.758;55.792;2022-12-18T12:59:04;5.50;;;3.22;;
65210;SDS011;51794;52.758;55.792;2022-12-18T13:04:08;7.78;;;3.65;;
65210;SDS011;51794;52.758;55.792;2022-12-18T13:09:10;5.95;;;3.00;;
65210;SDS011;51794;52.758;55.792;2022-12-18T13:11:37;6.03;;;3.25;;
65210;SDS011;51794;52.758;55.792;2022-12-18T13:14:23;5.00;;;3.25;;
65210;SDS011;51794;52.758;55.792;2022-12-18T13:16:50;6.10;;;3.10;;
65210;SDS011;51794;52.758;55.792;2022-12-18T13:19:22;4.82;;;2.83;;
65210;SDS011;51794;52.758;55.792;2022-12-18T13:21:52;6.30;;;3.28;;
65210;SDS011;51794;52.758;55.792;2022-12-18T13:26:49;6.20;;;3.05;;
65210;SDS011;51794;52.758;55.792;2022-12-18T13:29:40;6.93;;;3.15;;
65210;SDS011;51794;52.758;55.792;2022-12-18T13:32:00;5.03;;;3.22;;
65210;SDS011;51794;52.758;55.792;2022-12-18T13:34:27;5.72;;;3.10;;
65210;SDS011;51794;52.758;55.792;2022-12-18T13:36:55;5.78;;;2.75;;
65210;SDS011;51794;52.758;55.792;2022-12-18T13:41:53;6.55;;;3.25;;
65210;SDS011;51794;52.758;55.792;2022-12-18T13:44:32;9.00;;;3.03;;
65210;SDS011;51794;52.758;55.792;2022-12-18T13:46:59;5.23;;;3.17;;
65210;SDS011;51794;52.758;55.792;2022-12-18T13:49:29;6.13;;;3.38;;
65210;SDS011;51794;52.758;55.792;2022-12-18T13:51:57;6.90;;;3.35;;
65210;SDS011;51794;52.758;55.792;2022-12-18T13:56:49;6.18;;;3.20;;
65210;SDS011;51794;52.758;55.792;2022-12-18T13:59:19;7.88;;;3.38;;
65210;SDS011;51794;52.758;55.792;2022-12-18T14:04:16;5.25;;;2.85;;
65210;SDS011;51794;52.758;55.792;2022-12-18T14:06:43;6.13;;;3.20;;
65210;SDS011;51794;52.758;55.792;2022-12-18T14:09:14;6.05;;;3.15;;
65210;SDS011;51794;52.758;55.792;2022-12-18T14:11:40;6.38;;;3.45;;
65210;SDS011;51794;52.758;55.792;2022-12-18T14:14:13;6.22;;;3.22;;
65210;SDS011;51794;52.758;55.792;2022-12-18T14:16:39;4.45;;;2.75;;
65210;SDS011;51794;52.758;55.792;2022-12-18T14:19:08;7.72;;;3.03;;
65210;SDS011;51794;52.758;55.792;2022-12-18T14:21:37;4.57;;;3.00;;
65210;SDS011;51794;52.758;55.792;2022-12-18T14:24:12;5.03;;;3.17;;
65210;SDS011;51794;52.758;55.792;2022-12-18T14:26:39;7.53;;;3.35;;
65210;SDS011;51794;52.758;55.792;2022-12-18T14:29:24;7.93;;;3.50;;
65210;SDS011;51794;52.758;55.792;2022-12-18T14:32:06;5.25;;;2.90;;
65210;SDS011;51794;52.758;55.792;2022-12-18T14:34:32;4.72;;;2.65;;
65210;SDS011;51794;52.758;55.792;2022-12-18T14:37:00;4.93;;;2.42;;
65210;SDS011;51794;52.758;55.792;2022-12-18T14:39:26;6.55;;;3.15;;
65210;SDS011;51794;52.758;55.792;2022-12-18T14:41:52;5.75;;;3.22;;
65210;SDS011;51794;52.758;55.792;2022-12-18T14:44:18;14.88;;;4.13;;
65210;SDS011;51794;52.758;55.792;2022-12-18T14:46:47;6.28;;;2.75;;
65210;SDS011;51794;52.758;55.792;2022-12-18T14:51:42;4.95;;;3.10;;
65210;SDS011;51794;52.758;55.792;2022-12-18T14:54:16;4.88;;;3.10;;
65210;SDS011;51794;52.758;55.792;2022-12-18T14:56:43;8.10;;;3.83;;
65210;SDS011;51794;52.758;55.792;2022-12-18T14:59:13;7.63;;;3.15;;
65210;SDS011;51794;52.758;55.792;2022-12-18T15:04:27;5.38;;;3.10;;
65210;SDS011;51794;52.758;55.792;2022-12-18T15:09:31;4.97;;;3.22;;
65210;SDS011;51794;52.758;55.792;2022-12-18T15:11:58;5.43;;;3.30;;
65210;SDS011;51794;52.758;55.792;2022-12-18T15:16:56;6.65;;;2.97;;
65210;SDS011;51794;52.758;55.792;2022-12-18T15:19:31;6.68;;;3.85;;
65210;SDS011;51794;52.758;55.792;2022-12-18T15:21:58;6.97;;;2.92;;
65210;SDS011;51794;52.758;55.792;2022-12-18T15:24:26;6.88;;;2.83;;
65210;SDS011;51794;52.758;55.792;2022-12-18T15:26:52;7.22;;;2.92;;
65210;SDS011;51794;52.758;55.792;2022-12-18T15:29:21;5.40;;;2.58;;
65210;SDS011;51794;52.758;55.792;2022-12-18T15:32:04;6.47;;;3.83;;
65210;SDS011;51794;52.758;55.792;2022-12-18T15:34:30;7.35;;;3.53;;
65210;SDS011;51794;52.758;55.792;2022-12-18T15:36:56;4.78;;;2.85;;
65210;SDS011;51794;52.758;55.792;2022-12-18T15:39:22;4.60;;;3.40;;
65210;SDS011;51794;52.758;55.792;2022-12-18T15:41:48;6.53;;;3.13;;
65210;SDS011;51794;52.758;55.792;2022-12-18T15:44:33;6.75;;;2.97;;
65210;SDS011;51794;52.758;55.792;2022-12-18T15:46:59;5.15;;;2.80;;
65210;SDS011;51794;52.758;55.792;2022-12-18T15:49:24;4.75;;;2.90;;
65210;SDS011;51794;52.758;55.792;2022-12-18T15:51:54;5.63;;;3.15;;
65210;SDS011;51794;52.758;55.792;2022-12-18T15:54:22;6.70;;;3.28;;
65210;SDS011;51794;52.758;55.792;2022-12-18T15:57:09;5.88;;;2.80;;
65210;SDS011;51794;52.758;55.792;2022-12-18T15:59:51;4.10;;;2.92;;
65210;SDS011;51794;52.758;55.792;2022-12-18T16:02:18;7.95;;;3.03;;
65210;SDS011;51794;52.758;55.792;2022-12-18T16:04:44;7.70;;;3.03;;
65210;SDS011;51794;52.758;55.792;2022-12-18T16:07:11;5.35;;;2.92;;
65210;SDS011;51794;52.758;55.792;2022-12-18T16:09:37;4.28;;;2.30;;
65210;SDS011;51794;52.758;55.792;2022-12-18T16:12:04;4.95;;;2.88;;
65210;SDS011;51794;52.758;55.792;2022-12-18T16:14:30;5.53;;;3.10;;
65210;SDS011;51794;52.758;55.792;2022-12-18T16:17:00;6.22;;;3.38;;
65210;SDS011;51794;52.758;55.792;2022-12-18T16:19:26;5.00;;;3.20;;
65210;SDS011;51794;52.758;55.792;2022-12-18T16:21:53;4.60;;;2.90;;
65210;SDS011;51794;52.758;55.792;2022-12-18T16:24:21;7.30;;;3.33;;
65210;SDS011;51794;52.758;55.792;2022-12-18T16:26:47;5.68;;;3.25;;
65210;SDS011;51794;52.758;55.792;2022-12-18T16:29:14;7.65;;;3.70;;
65210;SDS011;51794;52.758;55.792;2022-12-18T16:31:40;5.28;;;2.92;;
65210;SDS011;51794;52.758;55.792;2022-12-18T16:34:25;6.70;;;3.20;;
65210;SDS011;51794;52.758;55.792;2022-12-18T16:36:56;5.85;;;2.70;;